Home > Products > Valid Products > MTR

000
SAUS45 KREV 101454
MTRDRA
METAR KDRA 101453Z AUTO VRB03KT 10SM CLR 04/M04 A3033 RMK AO2 SLP257
T00391039 51009





000
SAUS45 KREV 101354
MTRDRA
METAR KDRA 101353Z AUTO 11006KT 10SM CLR 05/M04 A3032 RMK AO2 SLP250
T00501039





000
SAUS45 KREV 101255
MTRDRA
METAR KDRA 101253Z AUTO 24003KT 10SM CLR 06/M04 A3031 RMK AO2 SLP243
T00561044





000
SAUS45 KREV 101155
MTRDRA
METAR KDRA 101153Z AUTO 10003KT 10SM CLR 05/M04 A3030 RMK AO2 SLP238
T00501039 10106 20050 50001





000
SAUS45 KREV 101155
MTRDRA
METAR KDRA 101153Z AUTO 10003KT 10SM CLR 05/M04 A3030 RMK AO2 SLP238
T00501039 10106 20050 50001





000
SAUS45 KREV 101055
MTRDRA
METAR KDRA 101053Z AUTO 00000KT 10SM CLR 07/M04 A3030 RMK AO2 SLP236
T00671039





000
SAUS45 KREV 100954
MTRDRA
METAR KDRA 100953Z AUTO 08003KT 10SM CLR 07/M04 A3030 RMK AO2 SLP237
T00721039





000
SAUS45 KREV 100954
MTRDRA
METAR KDRA 100953Z AUTO 08003KT 10SM CLR 07/M04 A3030 RMK AO2 SLP237
T00721039





000
SAUS45 KREV 100854
MTRDRA
METAR KDRA 100853Z AUTO 07007KT 10SM CLR 09/M04 A3030 RMK AO2 WSHFT
0807 SLP233 T00941039 56007





000
SAUS45 KREV 100854
MTRDRA
METAR KDRA 100853Z AUTO 07007KT 10SM CLR 09/M04 A3030 RMK AO2 WSHFT
0807 SLP233 T00941039 56007





000
SAUS45 KREV 100825
MTRDRA
SPECI KDRA 100824Z AUTO 05011KT 10SM CLR 11/M04 A3030 RMK AO2 WSHFT
0807 T01061039





000
SAUS45 KREV 100754
MTRDRA
METAR KDRA 100753Z AUTO 00000KT 10SM CLR 09/M03 A3030 RMK AO2 SLP236
T00941033 402220078





000
SAUS45 KREV 100655
MTRDRA
METAR KDRA 100653Z AUTO 03004KT 10SM CLR 08/M03 A3030 RMK AO2 SLP238
T00831033





000
SAUS45 KREV 100655
MTRDRA
METAR KDRA 100653Z AUTO 03004KT 10SM CLR 08/M03 A3030 RMK AO2 SLP238
T00831033





000
SAUS45 KREV 100555
MTRDRA
METAR KDRA 100553Z AUTO 10005KT 10SM CLR 09/M04 A3032 RMK AO2 SLP246
T00941044 10217 20094 51015





000
SAUS45 KREV 100555
MTRDRA
METAR KDRA 100553Z AUTO 10005KT 10SM CLR 09/M04 A3032 RMK AO2 SLP246
T00941044 10217 20094 51015





000
SAUS45 KREV 100454
MTRDRA
METAR KDRA 100453Z AUTO 03004KT 10SM CLR 12/M03 A3031 RMK AO2 SLP243
T01171033





000
SAUS45 KREV 100454
MTRDRA
METAR KDRA 100453Z AUTO 03004KT 10SM CLR 12/M03 A3031 RMK AO2 SLP243
T01171033





000
SAUS45 KREV 100354
MTRDRA
METAR KDRA 100353Z AUTO 00000KT 10SM CLR 11/M03 A3029 RMK AO2 SLP238
T01111028





000
SAUS45 KREV 100254
MTRDRA
METAR KDRA 100253Z AUTO 04010KT 10SM CLR 14/M02 A3027 RMK AO2 SLP231
T01391017 50000





000
SAUS45 KREV 100254
MTRDRA
METAR KDRA 100253Z AUTO 04010KT 10SM CLR 14/M02 A3027 RMK AO2 SLP231
T01391017 50000





000
SAUS45 KREV 100154
MTRDRA
METAR KDRA 100153Z AUTO 09007KT 10SM CLR 18/M07 A3028 RMK AO2 SLP230
T01781072





000
SAUS45 KREV 100154
MTRDRA
METAR KDRA 100153Z AUTO 09007KT 10SM CLR 18/M07 A3028 RMK AO2 SLP230
T01781072





000
SAUS45 KREV 100055
MTRDRA
METAR KDRA 100053Z AUTO 11008KT 10SM CLR 20/M07 A3027 RMK AO2 SLP226
T02001072





000
SAUS45 KREV 100055
MTRDRA
METAR KDRA 100053Z AUTO 11008KT 10SM CLR 20/M07 A3027 RMK AO2 SLP226
T02001072





000
SAUS45 KREV 092354
MTRDRA
METAR KDRA 092353Z AUTO 12011KT 10SM CLR 21/M07 A3027 RMK AO2 SLP225
T02111067 10222 20161 56012





000
SAUS45 KREV 092354
MTRDRA
METAR KDRA 092353Z AUTO 12011KT 10SM CLR 21/M07 A3027 RMK AO2 SLP225
T02111067 10222 20161 56012





000
SAUS45 KREV 092255
MTRDRA
METAR KDRA 092253Z AUTO 12012KT 10SM CLR 22/M06 A3027 RMK AO2 SLP224
T02171061





000
SAUS45 KREV 092154
MTRDRA
METAR KDRA 092153Z AUTO 13008KT 100V160 10SM CLR 22/M07 A3029 RMK
AO2 SLP229 T02171067





000
SAUS45 KREV 092054
MTRDRA
METAR KDRA 092053Z AUTO 12011KT 10SM CLR 21/M06 A3031 RMK AO2 SLP237
T02111061 58030





000
SAUS45 KREV 092054
MTRDRA
METAR KDRA 092053Z AUTO 12011KT 10SM CLR 21/M06 A3031 RMK AO2 SLP237
T02111061 58030





000
SAUS45 KREV 091954
MTRDRA
METAR KDRA 091953Z AUTO 02009KT 10SM CLR 20/M04 A3036 RMK AO2 SLP254
T02001044





000
SAUS45 KREV 091954
MTRDRA
METAR KDRA 091953Z AUTO 02009KT 10SM CLR 20/M04 A3036 RMK AO2 SLP254
T02001044





000
SAUS45 KREV 091854
MTRDRA
METAR KDRA 091853Z AUTO 03014KT 10SM CLR 18/M04 A3039 RMK AO2 SLP265
T01831044





000
SAUS45 KREV 091854
MTRDRA
METAR KDRA 091853Z AUTO 03014KT 10SM CLR 18/M04 A3039 RMK AO2 SLP265
T01831044





000
SAUS45 KREV 091755
MTRDRA
METAR KDRA 091753Z AUTO 04013KT 10SM CLR 16/M04 A3041 RMK AO2 SLP274
T01611044 10161 20089 51008





000
SAUS45 KREV 091655
MTRDRA
METAR KDRA 091653Z AUTO 03015KT 10SM CLR 13/M04 A3040 RMK AO2 SLP273
T01281044





000
SAUS45 KREV 091655
MTRDRA
METAR KDRA 091653Z AUTO 03015KT 10SM CLR 13/M04 A3040 RMK AO2 SLP273
T01281044





000
SAUS45 KREV 091554
MTRDRA
METAR KDRA 091553Z AUTO 03014KT 10SM CLR 12/M04 A3039 RMK AO2 SLP272
T01171044





000
SAUS45 KREV 091454
MTRDRA
METAR KDRA 091453Z AUTO 03018KT 10SM CLR 10/M04 A3038 RMK AO2 SLP270
T01001044 56003





000
SAUS45 KREV 091354
MTRDRA
METAR KDRA 091353Z AUTO 05012KT 10SM CLR 11/M04 A3038 RMK AO2 SLP267
T01111044





000
SAUS45 KREV 091254
MTRDRA
METAR KDRA 091253Z AUTO 05015KT 10SM CLR 10/M04 A3039 RMK AO2 SLP267
T01001044





000
SAUS45 KREV 091155
MTRDRA
METAR KDRA 091153Z AUTO 04015KT 10SM CLR 09/M04 A3039 RMK AO2 SLP266
T00941039 10128 20094 55000





000
SAUS45 KREV 091155
MTRDRA
METAR KDRA 091153Z AUTO 04015KT 10SM CLR 09/M04 A3039 RMK AO2 SLP266
T00941039 10128 20094 55000





000
SAUS45 KREV 091055
MTRDRA
METAR KDRA 091053Z AUTO 03012KT 10SM CLR 10/M04 A3038 RMK AO2 SLP263
T01001044





000
SAUS45 KREV 090954
MTRDRA
METAR KDRA 090953Z AUTO 04016KT 10SM CLR 12/M04 A3039 RMK AO2 SLP264
T01171044





000
SAUS45 KREV 090856
MTRDRA
METAR KDRA 090853Z AUTO 04015KT 10SM CLR 11/M04 A3039 RMK AO2 SLP268
T01111044 50001





000
SAUS45 KREV 090856
MTRDRA
METAR KDRA 090853Z AUTO 04015KT 10SM CLR 11/M04 A3039 RMK AO2 SLP268
T01111044 50001





000
SAUS45 KREV 090754
MTRDRA
METAR KDRA 090753Z AUTO 04014KT 10SM CLR 11/M04 A3040 RMK AO2 SLP269
T01111044 402170067





000
SAUS45 KREV 090655
MTRDRA
METAR KDRA 090653Z AUTO 04019KT 10SM CLR 13/M04 A3039 RMK AO2 SLP267
T01281044





000
SAUS45 KREV 090655
MTRDRA
METAR KDRA 090653Z AUTO 04019KT 10SM CLR 13/M04 A3039 RMK AO2 SLP267
T01281044





000
SAUS45 KREV 090555
MTRDRA
METAR KDRA 090553Z AUTO 04017KT 10SM CLR 12/M04 A3039 RMK AO2 SLP270
T01221044 10211 20122 51005





000
SAUS45 KREV 090454
MTRDRA
METAR KDRA 090453Z AUTO 04019G23KT 10SM CLR 13/M04 A3039 RMK AO2
SLP271 T01331039





000
SAUS45 KREV 090354
MTRDRA
METAR KDRA 090353Z AUTO 04017KT 10SM CLR 13/M03 A3039 RMK AO2 SLP271
T01331033





000
SAUS45 KREV 090354
MTRDRA
METAR KDRA 090353Z AUTO 04017KT 10SM CLR 13/M03 A3039 RMK AO2 SLP271
T01331033





000
SAUS45 KREV 090254
MTRDRA
METAR KDRA 090253Z AUTO 05010KT 10SM CLR 13/M02 A3037 RMK AO2 SLP270
T01331022 53003





000
SAUS45 KREV 090154
MTRDRA
METAR KDRA 090153Z AUTO 03012KT 10SM CLR 16/M02 A3037 RMK AO2 SLP267
T01561022





000
SAUS45 KREV 090055
MTRDRA
METAR KDRA 090053Z AUTO 10010KT 10SM CLR 19/M05 A3036 RMK AO2 SLP259
T01891050





000
SAUS45 KREV 090055
MTRDRA
METAR KDRA 090053Z AUTO 10010KT 10SM CLR 19/M05 A3036 RMK AO2 SLP259
T01891050





000
SAUS45 KREV 082355
MTRDRA
METAR KDRA 082353Z AUTO 07009KT 10SM CLR 21/M02 A3036 RMK AO2 SLP258
T02111022 10217 20139 55006





000
SAUS45 KREV 082355
MTRDRA
METAR KDRA 082353Z AUTO 07009KT 10SM CLR 21/M02 A3036 RMK AO2 SLP258
T02111022 10217 20139 55006





000
SAUS45 KREV 082255
MTRDRA
METAR KDRA 082253Z AUTO 09007G24KT 10SM CLR 21/M04 A3035 RMK AO2
SLP255 T02111044





000
SAUS45 KREV 082255
MTRDRA
METAR KDRA 082253Z AUTO 09007G24KT 10SM CLR 21/M04 A3035 RMK AO2
SLP255 T02111044





000
SAUS45 KREV 082155
MTRDRA
METAR KDRA 082153Z AUTO 13015KT 10SM CLR 20/M06 A3036 RMK AO2 SLP257
T02001056





000
SAUS45 KREV 082054
MTRDRA
METAR KDRA 082053Z AUTO 12015G20KT 10SM CLR 19/M06 A3038 RMK AO2
SLP266 T01891056 58027





000
SAUS45 KREV 081954
MTRDRA
METAR KDRA 081953Z AUTO 08010KT 10SM CLR 19/M05 A3042 RMK AO2 SLP280
T01891050





000
SAUS45 KREV 081854
MTRDRA
METAR KDRA 081853Z AUTO 04012G15KT 10SM CLR 17/M06 A3045 RMK AO2
SLP291 T01671056





000
SAUS45 KREV 081756
MTRDRA
METAR KDRA 081753Z AUTO 03014KT 10SM CLR 14/M05 A3047 RMK AO2 SLP301
T01441050 10144 20067 50002





000
SAUS45 KREV 081655
MTRDRA
METAR KDRA 081653Z AUTO 03014KT 10SM CLR 11/M06 A3049 RMK AO2 SLP309
T01111056





000
SAUS45 KREV 081655
MTRDRA
METAR KDRA 081653Z AUTO 03014KT 10SM CLR 11/M06 A3049 RMK AO2 SLP309
T01111056





000
SAUS45 KREV 081554
MTRDRA
METAR KDRA 081553Z AUTO 03012KT 10SM CLR 09/M05 A3048 RMK AO2 SLP306
T00941050





000
SAUS45 KREV 081554
MTRDRA
METAR KDRA 081553Z AUTO 03012KT 10SM CLR 09/M05 A3048 RMK AO2 SLP306
T00941050





000
SAUS45 KREV 081454
MTRDRA
METAR KDRA 081453Z AUTO 04014KT 10SM CLR 07/M06 A3047 RMK AO2 SLP305
T00721056 53001





000
SAUS45 KREV 081354
MTRDRA
METAR KDRA 081353Z AUTO 05011KT 10SM CLR 07/M05 A3046 RMK AO2 SLP301
T00721050





000
SAUS45 KREV 081255
MTRDRA
METAR KDRA 081253Z AUTO 04015KT 10SM CLR 07/M05 A3045 RMK AO2 SLP296
T00721050





000
SAUS45 KREV 081255
MTRDRA
METAR KDRA 081253Z AUTO 04015KT 10SM CLR 07/M05 A3045 RMK AO2 SLP296
T00721050





000
SAUS45 KREV 081155
MTRDRA
METAR KDRA 081153Z AUTO 03016KT 10SM CLR 07/M05 A3046 RMK AO2 SLP296
T00721050 10094 20072 53002





000
SAUS45 KREV 081155
MTRDRA
METAR KDRA 081153Z AUTO 03016KT 10SM CLR 07/M05 A3046 RMK AO2 SLP296
T00721050 10094 20072 53002





000
SAUS45 KREV 081055
MTRDRA
METAR KDRA 081053Z AUTO 04016KT 10SM CLR 07/M04 A3046 RMK AO2 SLP295
T00721044





000
SAUS45 KREV 080954
MTRDRA
METAR KDRA 080953Z AUTO 04013KT 10SM CLR 08/M04 A3046 RMK AO2 SLP293
T00781044





000
SAUS45 KREV 080855
MTRDRA
METAR KDRA 080853Z AUTO 04014KT 10SM CLR 08/M04 A3046 RMK AO2 SLP293
T00831044 50002





000
SAUS45 KREV 080855
MTRDRA
METAR KDRA 080853Z AUTO 04014KT 10SM CLR 08/M04 A3046 RMK AO2 SLP293
T00831044 50002





000
SAUS45 KREV 080754
MTRDRA
METAR KDRA 080753Z AUTO 05013KT 10SM CLR 09/M05 A3046 RMK AO2 SLP295
T00891050 401940022





000
SAUS45 KREV 080655
MTRDRA
METAR KDRA 080653Z AUTO 03016KT 10SM CLR 09/M04 A3045 RMK AO2 SLP295
T00891044





000
SAUS45 KREV 080555
MTRDRA
METAR KDRA 080553Z AUTO 03018KT 10SM CLR 09/M04 A3045 RMK AO2 PK WND
03026/0501 SLP295 T00891044 10178 20089 51015





000
SAUS45 KREV 080555
MTRDRA
METAR KDRA 080553Z AUTO 03018KT 10SM CLR 09/M04 A3045 RMK AO2 PK WND
03026/0501 SLP295 T00891044 10178 20089 51015





000
SAUS45 KREV 080454
MTRDRA
METAR KDRA 080453Z AUTO 03020KT 10SM CLR 09/M04 A3044 RMK AO2 PK WND
03027/0409 SLP295 T00941044





000
SAUS45 KREV 080454
MTRDRA
METAR KDRA 080453Z AUTO 03020KT 10SM CLR 09/M04 A3044 RMK AO2 PK WND
03027/0409 SLP295 T00941044





000
SAUS45 KREV 080354
MTRDRA
METAR KDRA 080353Z AUTO 03020KT 10SM CLR 10/M04 A3043 RMK AO2 SLP290
T01001039





000
SAUS45 KREV 080254
MTRDRA
METAR KDRA 080253Z AUTO 04015KT 10SM CLR 11/M04 A3040 RMK AO2 SLP286
T01061039 53016





000
SAUS45 KREV 080154
MTRDRA
METAR KDRA 080153Z AUTO 03015KT 10SM CLR 12/M03 A3038 RMK AO2 SLP277
T01221028





000
SAUS45 KREV 080055
MTRDRA
METAR KDRA 080053Z AUTO 03020G25KT 10SM CLR 15/M03 A3036 RMK AO2
SLP265 T01501033





000
SAUS45 KREV 080055
MTRDRA
METAR KDRA 080053Z AUTO 03020G25KT 10SM CLR 15/M03 A3036 RMK AO2
SLP265 T01501033





000
SAUS45 KREV 072354
MTRDRA
METAR KDRA 072353Z AUTO 03018KT 10SM CLR 18/M04 A3035 RMK AO2 SLP259
T01781039 10194 20128 56005





000
SAUS45 KREV 072255
MTRDRA
METAR KDRA 072253Z AUTO 02018KT 10SM CLR 19/M04 A3035 RMK AO2 PK WND
03026/2241 SLP257 T01891044





000
SAUS45 KREV 072155
MTRDRA
METAR KDRA 072153Z AUTO 04014G21KT 10SM CLR 19/M06 A3036 RMK AO2
SLP258 T01891056





000
SAUS45 KREV 072054
MTRDRA
METAR KDRA 072053Z AUTO 04016KT 10SM CLR 18/M07 A3037 RMK AO2 SLP264
T01831067 58015





000
SAUS45 KREV 072054
MTRDRA
METAR KDRA 072053Z AUTO 04016KT 10SM CLR 18/M07 A3037 RMK AO2 SLP264
T01831067 58015





000
SAUS45 KREV 071954
MTRDRA
METAR KDRA 071953Z AUTO 04018KT 10SM CLR 16/M08 A3039 RMK AO2 SLP273
T01611078





000
SAUS45 KREV 071854
MTRDRA
METAR KDRA 071853Z AUTO 03017KT 10SM CLR 14/M08 A3041 RMK AO2 SLP283
T01391083





000
SAUS45 KREV 071854
MTRDRA
METAR KDRA 071853Z AUTO 03017KT 10SM CLR 14/M08 A3041 RMK AO2 SLP283
T01391083





000
SAUS45 KREV 071755
MTRDRA
METAR KDRA 071753Z AUTO 04019KT 10SM CLR 13/M09 A3041 RMK AO2 SLP285
T01281094 10128 20022 51002





000
SAUS45 KREV 071755
MTRDRA
METAR KDRA 071753Z AUTO 04019KT 10SM CLR 13/M09 A3041 RMK AO2 SLP285
T01281094 10128 20022 51002





000
SAUS45 KREV 071655
MTRDRA
METAR KDRA 071653Z AUTO 03015KT 10SM CLR 10/M08 A3041 RMK AO2 SLP287
T01001083





000
SAUS45 KREV 071655
MTRDRA
METAR KDRA 071653Z AUTO 03015KT 10SM CLR 10/M08 A3041 RMK AO2 SLP287
T01001083





000
SAUS45 KREV 071554
MTRDRA
METAR KDRA 071553Z AUTO 04009KT 10SM CLR 10/M09 A3041 RMK AO2 SLP287
T01001089





    US Dept of Commerce
    National Oceanic and Atmospheric Administration
    National Weather Service
    1325 East West Highway
    Silver Spring, MD 20910
    Page Author: NWS Internet Services Team
Disclaimer
Information Quality
Credits
Glossary
Privacy Policy
Freedom of Information Act (FOIA)
About Us
Career Opportunities